This is the latest recevied weather packets stored in our database for station/object n3uvr. If no packets are shown the sender has not sent any weather packets the latest 10 day(s).
| Time | Temp. | Humidity | Pressure | Rain* | Wind** | Luminosity | Snow |
|---|---|---|---|---|---|---|---|
| 1788473178 | 28.89° C | 72% | 1012.2 hPa | 0 mm | - | 14 W/m² | - |
| 1788471958 | 28.89° C | 70% | 1011.8 hPa | 0 mm | - | 58 W/m² | - |
| 1788470741 | 29.44° C | 71% | 1012 hPa | 0 mm | - | 74 W/m² | - |
| 1788467714 | 28.89° C | 72% | 1012.3 hPa | 0 mm | - | 74 W/m² | - |
| 1788466513 | 29.44° C | 70% | 1012.3 hPa | 0 mm | - | 142 W/m² | - |
| 1788464743 | 28.89° C | 72% | 1012.7 hPa | 0 mm | - | 165 W/m² | - |
| 1788463536 | 28.33° C | 74% | 1013 hPa | 0 mm | - | 146 W/m² | - |
| 1788449712 | 21.11° C | 82% | 1015.1 hPa | 0.25 mm | - | 111 W/m² | - |
| 1788447896 | 20.56° C | 82% | 1015.6 hPa | 0.25 mm | - | 23 W/m² | - |
| 1788443711 | 20.56° C | 83% | 1014.9 hPa | 0 mm | - | 28 W/m² | - |
| 1788441898 | 20° C | 83% | 1015 hPa | 0 mm | - | 28 W/m² | - |
| 1788434684 | 18.89° C | 82% | 1014.8 hPa | 0 mm | - | 0 W/m² | - |
| 1788434067 | 18.89° C | 82% | 1014.9 hPa | 0.25 mm | - | 0 W/m² | - |
| 1788432870 | 18.89° C | 82% | 1015.1 hPa | 0.25 mm | - | 0 W/m² | - |
| 1788432267 | 18.89° C | 82% | 1015.4 hPa | 0.25 mm | - | 0 W/m² | - |
| 1788431645 | 18.89° C | 82% | 1015.2 hPa | 0.25 mm | - | 0 W/m² | - |
| 1788431019 | 18.89° C | 82% | 1014.9 hPa | 0.25 mm | - | 0 W/m² | - |
| 1788429846 | 18.89° C | 82% | 1015.3 hPa | 0 mm | - | 0 W/m² | - |
| 1788429285 | 18.89° C | 82% | 1015.3 hPa | 0 mm | - | 0 W/m² | - |
| 1788428685 | 18.89° C | 82% | 1015 hPa | 0 mm | - | 0 W/m² | - |
| 1788426852 | 18.89° C | 82% | 1014.7 hPa | 0 mm | - | 0 W/m² | - |
| 1788425658 | 18.89° C | 82% | 1015 hPa | 0 mm | - | 0 W/m² | - |
| 1788425029 | 18.89° C | 82% | 1014.9 hPa | 0.25 mm | - | 0 W/m² | - |
| 1788424435 | 18.89° C | 82% | 1015 hPa | 0.51 mm | - | 0 W/m² | - |
| 1788423824 | 18.89° C | 82% | 1015 hPa | 1.02 mm | - | 0 W/m² | - |
* Rain latest hour (hover to see other rain measurements)
** Current wind speed in m/s (hover to see current wind gust speed)